createdAt,value
2022-09-28T00:03:03.789Z,7.9
2022-09-28T00:13:04.679Z,7.9
2022-09-28T00:33:06.710Z,7.8
2022-09-28T00:43:07.404Z,7.7
2022-09-28T00:53:07.498Z,7.5
2022-09-28T01:03:08.080Z,7.5
2022-09-28T01:13:08.384Z,7.6
2022-09-28T01:23:08.516Z,7.6
2022-09-28T01:33:09.392Z,7.6
2022-09-28T01:43:10.449Z,7.6
2022-09-28T01:53:11.511Z,7.6
2022-09-28T02:03:12.438Z,7.6
2022-09-28T02:23:13.531Z,7.6
2022-09-28T02:33:14.014Z,7.6
2022-09-28T02:43:14.498Z,7.6
2022-09-28T02:53:15.189Z,7.6
2022-09-28T03:03:16.229Z,7.6
2022-09-28T03:13:16.466Z,7.7
2022-09-28T03:23:24.570Z,7.7
2022-09-28T03:33:17.493Z,7.7
2022-09-28T03:43:18.336Z,7.7
2022-09-28T03:53:18.991Z,7.7
2022-09-28T04:03:19.493Z,7.6
2022-09-28T04:13:19.955Z,7.6
2022-09-28T04:33:21.179Z,7.7
2022-09-28T04:43:22.143Z,7.7
2022-09-28T04:53:22.627Z,7.7
2022-09-28T05:03:22.947Z,7.8
2022-09-28T05:13:23.354Z,7.8
2022-09-28T05:23:23.790Z,7.8
2022-09-28T05:33:24.540Z,7.8
2022-09-28T05:53:25.965Z,7.9
2022-09-28T06:03:26.224Z,7.9
2022-09-28T06:13:26.933Z,7.9
2022-09-28T06:23:27.457Z,8
2022-09-28T06:33:27.766Z,8
2022-09-28T06:43:32.210Z,8
2022-09-28T07:13:48.266Z,8.2
2022-09-28T07:23:31.149Z,8.3
2022-09-28T07:33:31.850Z,8.3
2022-09-28T07:43:32.510Z,8.4
2022-09-28T07:53:32.823Z,8.5
2022-09-28T08:03:33.691Z,8.5
2022-09-28T08:23:34.557Z,8.8
2022-09-28T08:33:35.324Z,8.9
2022-09-28T08:43:35.453Z,9.1
2022-09-28T08:53:36.261Z,9.3
2022-09-28T09:03:36.463Z,9.7
2022-09-28T09:13:37.467Z,9.9
2022-09-28T09:23:38.099Z,10
2022-09-28T09:33:38.681Z,10
2022-09-28T09:43:38.956Z,10.4
2022-09-28T09:53:39.800Z,10.4
2022-09-28T10:03:40.155Z,10.9
2022-09-28T10:13:40.994Z,11
2022-09-28T10:23:41.570Z,10.7
2022-09-28T10:33:42.174Z,11
2022-09-28T10:43:45.461Z,11
2022-09-28T10:53:43.515Z,11.2
2022-09-28T11:03:44.388Z,11.4
2022-09-28T11:13:45.257Z,11.8
2022-09-28T11:23:46.287Z,12
2022-09-28T11:45:28.393Z,12.3
2022-09-28T11:55:28.880Z,13.1
2022-09-28T12:05:29.707Z,13.2
2022-09-28T12:15:34.993Z,12.8
2022-09-28T12:25:31.051Z,12.9
2022-09-28T12:35:31.753Z,12.7
2022-09-28T12:45:38.621Z,13.3
2022-09-28T13:05:33.345Z,13.2
2022-09-28T13:25:35.280Z,12.6
2022-09-28T13:35:35.868Z,12.8
2022-09-28T13:55:36.982Z,13.9
2022-09-28T14:05:37.252Z,13.9
2022-09-28T14:25:38.946Z,14
2022-09-28T14:35:39.371Z,13.5
2022-09-28T14:45:40.462Z,13.4
2022-09-28T14:55:40.821Z,14.4
2022-09-28T15:05:41.023Z,14.1
2022-09-28T15:15:41.860Z,14.4
2022-09-28T15:25:42.758Z,14.1
2022-09-28T15:35:43.256Z,13.3
2022-09-28T15:45:43.827Z,12.9
2022-09-28T15:55:44.208Z,12.6
2022-09-28T16:05:44.328Z,12.5
2022-09-28T16:15:45.290Z,12.4
2022-09-28T16:25:45.766Z,12.1
2022-09-28T16:45:47.224Z,11.9
2022-09-28T17:55:50.826Z,10.9
2022-09-28T18:35:53.326Z,10.2
2022-09-28T18:45:54.309Z,10.1
2022-09-28T18:55:55.356Z,10
2022-09-28T19:05:55.847Z,9.9
2022-09-28T19:15:56.943Z,9.6
2022-09-28T19:25:57.285Z,9.3
2022-09-28T19:45:58.071Z,9
2022-09-28T19:55:58.352Z,9
2022-09-28T20:05:58.504Z,8.9
2022-09-28T20:15:59.372Z,8.8
2022-09-28T20:25:59.681Z,8.8
2022-09-28T20:36:00.640Z,8.7
2022-09-28T20:46:01.252Z,8.4
2022-09-28T20:56:01.427Z,8.2
2022-09-28T21:16:03.314Z,8.1
2022-09-28T21:26:03.846Z,8
2022-09-28T21:36:04.098Z,7.9
2022-09-28T21:46:05.011Z,7.8
2022-09-28T21:56:05.821Z,7.8
2022-09-28T22:06:06.883Z,7.7
2022-09-28T22:16:07.406Z,7.6
2022-09-28T22:26:07.476Z,7.5
2022-09-28T22:36:07.843Z,7.5
2022-09-28T22:46:09.015Z,7.3
2022-09-28T22:56:09.227Z,7.1
2022-09-28T23:06:10.087Z,6.9
2022-09-28T23:16:10.432Z,6.7
2022-09-28T23:26:11.268Z,6.6
2022-09-28T23:36:12.017Z,6.5
2022-09-28T23:46:12.161Z,6.5
